sensor_id;sensor_type;location;lat;lon;timestamp;temperature;humidity
7196;DHT22;3639;51.308;5.624;2022-09-09T00:02:21;14.60;99.90
7196;DHT22;3639;51.308;5.624;2022-09-09T00:07:28;14.50;99.90
7196;DHT22;3639;51.308;5.624;2022-09-09T00:15:24;14.40;99.90
7196;DHT22;3639;51.308;5.624;2022-09-09T00:17:56;14.40;99.90
7196;DHT22;3639;51.308;5.624;2022-09-09T00:20:38;14.40;99.90
7196;DHT22;3639;51.308;5.624;2022-09-09T00:26:27;14.30;99.90
7196;DHT22;3639;51.308;5.624;2022-09-09T00:28:31;14.20;99.90
7196;DHT22;3639;51.308;5.624;2022-09-09T00:31:11;14.20;99.90
7196;DHT22;3639;51.308;5.624;2022-09-09T00:33:38;14.20;99.90
7196;DHT22;3639;51.308;5.624;2022-09-09T00:36:12;14.10;99.90
7196;DHT22;3639;51.308;5.624;2022-09-09T00:38:52;14.10;99.90
7196;DHT22;3639;51.308;5.624;2022-09-09T00:49:43;14.00;99.90
7196;DHT22;3639;51.308;5.624;2022-09-09T00:57:35;13.80;99.90
7196;DHT22;3639;51.308;5.624;2022-09-09T01:00:25;13.90;99.90
7196;DHT22;3639;51.308;5.624;2022-09-09T01:06:01;13.80;99.90
7196;DHT22;3639;51.308;5.624;2022-09-09T01:11:00;13.90;99.90
7196;DHT22;3639;51.308;5.624;2022-09-09T01:13:33;13.90;99.90
7196;DHT22;3639;51.308;5.624;2022-09-09T01:16:01;13.90;99.90
7196;DHT22;3639;51.308;5.624;2022-09-09T01:18:35;13.90;99.90
7196;DHT22;3639;51.308;5.624;2022-09-09T01:24:21;13.90;99.90
7196;DHT22;3639;51.308;5.624;2022-09-09T01:26:51;13.90;99.90
7196;DHT22;3639;51.308;5.624;2022-09-09T01:29:19;13.90;99.90
7196;DHT22;3639;51.308;5.624;2022-09-09T01:32:01;13.80;99.90
7196;DHT22;3639;51.308;5.624;2022-09-09T01:34:33;13.80;99.90
7196;DHT22;3639;51.308;5.624;2022-09-09T01:37:08;13.80;99.90
7196;DHT22;3639;51.308;5.624;2022-09-09T01:39:36;13.80;99.90
7196;DHT22;3639;51.308;5.624;2022-09-09T01:42:04;13.80;99.90
7196;DHT22;3639;51.308;5.624;2022-09-09T01:44:31;13.70;99.90
7196;DHT22;3639;51.308;5.624;2022-09-09T01:46:56;13.80;99.90
7196;DHT22;3639;51.308;5.624;2022-09-09T01:49:23;13.70;99.90
7196;DHT22;3639;51.308;5.624;2022-09-09T01:51:55;13.70;99.90
7196;DHT22;3639;51.308;5.624;2022-09-09T01:54:24;13.70;99.90
7196;DHT22;3639;51.308;5.624;2022-09-09T02:02:38;13.70;99.90
7196;DHT22;3639;51.308;5.624;2022-09-09T02:05:29;13.70;99.90
7196;DHT22;3639;51.308;5.624;2022-09-09T02:08:11;13.70;99.90
7196;DHT22;3639;51.308;5.624;2022-09-09T02:10:46;13.70;99.90
7196;DHT22;3639;51.308;5.624;2022-09-09T02:13:14;13.70;99.90
7196;DHT22;3639;51.308;5.624;2022-09-09T02:19:10;13.70;99.90
7196;DHT22;3639;51.308;5.624;2022-09-09T02:21:39;13.80;99.90
7196;DHT22;3639;51.308;5.624;2022-09-09T02:24:08;13.80;99.90
7196;DHT22;3639;51.308;5.624;2022-09-09T02:26:39;13.80;99.90
7196;DHT22;3639;51.308;5.624;2022-09-09T02:29:08;13.80;99.90
7196;DHT22;3639;51.308;5.624;2022-09-09T02:31:36;13.80;99.90
7196;DHT22;3639;51.308;5.624;2022-09-09T02:34:03;13.80;99.90
7196;DHT22;3639;51.308;5.624;2022-09-09T02:36:32;13.80;99.90
7196;DHT22;3639;51.308;5.624;2022-09-09T02:39:00;13.70;99.90
7196;DHT22;3639;51.308;5.624;2022-09-09T02:41:35;13.70;99.90
7196;DHT22;3639;51.308;5.624;2022-09-09T02:44:05;13.70;99.90
7196;DHT22;3639;51.308;5.624;2022-09-09T02:49:55;13.70;99.90
7196;DHT22;3639;51.308;5.624;2022-09-09T02:55:46;13.70;99.90
7196;DHT22;3639;51.308;5.624;2022-09-09T02:58:16;13.70;99.90
7196;DHT22;3639;51.308;5.624;2022-09-09T03:00:44;13.70;99.90
7196;DHT22;3639;51.308;5.624;2022-09-09T03:03:11;13.70;99.90
7196;DHT22;3639;51.308;5.624;2022-09-09T03:05:37;13.70;99.90
7196;DHT22;3639;51.308;5.624;2022-09-09T03:08:04;13.70;99.90
7196;DHT22;3639;51.308;5.624;2022-09-09T03:10:31;13.70;99.90
7196;DHT22;3639;51.308;5.624;2022-09-09T03:12:57;13.70;99.90
7196;DHT22;3639;51.308;5.624;2022-09-09T03:15:22;13.70;99.90
7196;DHT22;3639;51.308;5.624;2022-09-09T03:17:48;13.80;99.90
7196;DHT22;3639;51.308;5.624;2022-09-09T03:20:14;13.80;99.90
7196;DHT22;3639;51.308;5.624;2022-09-09T03:22:40;13.80;99.90
7196;DHT22;3639;51.308;5.624;2022-09-09T03:25:06;13.80;99.90
7196;DHT22;3639;51.308;5.624;2022-09-09T03:27:31;13.80;99.90
7196;DHT22;3639;51.308;5.624;2022-09-09T03:29:57;13.80;99.90
7196;DHT22;3639;51.308;5.624;2022-09-09T03:32:24;13.80;99.90
7196;DHT22;3639;51.308;5.624;2022-09-09T03:34:51;13.80;99.90
7196;DHT22;3639;51.308;5.624;2022-09-09T03:37:18;13.80;99.90
7196;DHT22;3639;51.308;5.624;2022-09-09T03:39:44;13.80;99.90
7196;DHT22;3639;51.308;5.624;2022-09-09T03:42:12;13.80;99.90
7196;DHT22;3639;51.308;5.624;2022-09-09T03:44:39;13.80;99.90
7196;DHT22;3639;51.308;5.624;2022-09-09T03:47:05;13.80;99.90
7196;DHT22;3639;51.308;5.624;2022-09-09T03:49:31;13.80;99.90
7196;DHT22;3639;51.308;5.624;2022-09-09T03:51:57;13.80;99.90
7196;DHT22;3639;51.308;5.624;2022-09-09T03:54:24;13.90;99.90
7196;DHT22;3639;51.308;5.624;2022-09-09T03:56:50;13.90;99.90
7196;DHT22;3639;51.308;5.624;2022-09-09T03:59:16;13.90;99.90
7196;DHT22;3639;51.308;5.624;2022-09-09T04:01:42;13.90;99.90
7196;DHT22;3639;51.308;5.624;2022-09-09T04:04:08;14.00;99.90
7196;DHT22;3639;51.308;5.624;2022-09-09T04:06:35;14.00;99.90
7196;DHT22;3639;51.308;5.624;2022-09-09T04:09:00;14.10;99.90
7196;DHT22;3639;51.308;5.624;2022-09-09T04:11:28;14.10;99.90
7196;DHT22;3639;51.308;5.624;2022-09-09T04:13:53;14.10;99.90
7196;DHT22;3639;51.308;5.624;2022-09-09T04:16:19;14.10;99.90
7196;DHT22;3639;51.308;5.624;2022-09-09T04:18:45;14.20;99.90
7196;DHT22;3639;51.308;5.624;2022-09-09T04:21:11;14.20;99.90
7196;DHT22;3639;51.308;5.624;2022-09-09T04:23:38;14.20;99.90
7196;DHT22;3639;51.308;5.624;2022-09-09T04:26:05;14.30;99.90
7196;DHT22;3639;51.308;5.624;2022-09-09T04:28:33;14.30;99.90
7196;DHT22;3639;51.308;5.624;2022-09-09T04:31:25;14.20;99.90
7196;DHT22;3639;51.308;5.624;2022-09-09T04:33:51;14.30;99.90
7196;DHT22;3639;51.308;5.624;2022-09-09T04:36:18;14.30;99.90
7196;DHT22;3639;51.308;5.624;2022-09-09T04:38:45;14.30;99.90
7196;DHT22;3639;51.308;5.624;2022-09-09T04:41:11;14.30;99.90
7196;DHT22;3639;51.308;5.624;2022-09-09T04:43:37;14.30;99.90
7196;DHT22;3639;51.308;5.624;2022-09-09T04:46:03;14.30;99.90
7196;DHT22;3639;51.308;5.624;2022-09-09T04:48:29;14.30;99.90
7196;DHT22;3639;51.308;5.624;2022-09-09T04:50:57;14.30;99.90
7196;DHT22;3639;51.308;5.624;2022-09-09T04:53:24;14.20;99.90
7196;DHT22;3639;51.308;5.624;2022-09-09T04:55:51;14.20;99.90
7196;DHT22;3639;51.308;5.624;2022-09-09T04:58:16;14.10;99.90
7196;DHT22;3639;51.308;5.624;2022-09-09T05:00:42;14.10;99.90
7196;DHT22;3639;51.308;5.624;2022-09-09T05:03:08;14.00;99.90
7196;DHT22;3639;51.308;5.624;2022-09-09T05:05:34;14.10;99.90
7196;DHT22;3639;51.308;5.624;2022-09-09T05:08:05;14.10;99.90
7196;DHT22;3639;51.308;5.624;2022-09-09T05:10:32;14.10;99.90
7196;DHT22;3639;51.308;5.624;2022-09-09T05:12:58;14.00;99.90
7196;DHT22;3639;51.308;5.624;2022-09-09T05:15:24;14.00;99.90
7196;DHT22;3639;51.308;5.624;2022-09-09T05:17:49;14.00;99.90
7196;DHT22;3639;51.308;5.624;2022-09-09T05:20:17;13.90;99.90
7196;DHT22;3639;51.308;5.624;2022-09-09T05:22:43;13.90;99.90
7196;DHT22;3639;51.308;5.624;2022-09-09T05:25:09;13.90;99.90
7196;DHT22;3639;51.308;5.624;2022-09-09T05:27:35;13.90;99.90
7196;DHT22;3639;51.308;5.624;2022-09-09T05:30:00;13.90;99.90
7196;DHT22;3639;51.308;5.624;2022-09-09T05:32:26;13.90;99.90
7196;DHT22;3639;51.308;5.624;2022-09-09T05:34:53;13.90;99.90
7196;DHT22;3639;51.308;5.624;2022-09-09T05:37:19;13.90;99.90
7196;DHT22;3639;51.308;5.624;2022-09-09T05:39:44;13.90;99.90
7196;DHT22;3639;51.308;5.624;2022-09-09T05:42:10;14.00;99.90
7196;DHT22;3639;51.308;5.624;2022-09-09T05:44:36;14.00;99.90
7196;DHT22;3639;51.308;5.624;2022-09-09T05:47:02;14.00;99.90
7196;DHT22;3639;51.308;5.624;2022-09-09T05:49:28;14.00;99.90
7196;DHT22;3639;51.308;5.624;2022-09-09T05:51:53;14.10;99.90
7196;DHT22;3639;51.308;5.624;2022-09-09T05:54:19;14.10;99.90
7196;DHT22;3639;51.308;5.624;2022-09-09T05:56:45;14.10;99.90
7196;DHT22;3639;51.308;5.624;2022-09-09T05:59:10;14.10;99.90
7196;DHT22;3639;51.308;5.624;2022-09-09T06:01:37;14.20;99.90
7196;DHT22;3639;51.308;5.624;2022-09-09T06:04:06;14.20;99.90
7196;DHT22;3639;51.308;5.624;2022-09-09T06:06:34;14.20;99.90
7196;DHT22;3639;51.308;5.624;2022-09-09T06:09:06;14.30;99.90
7196;DHT22;3639;51.308;5.624;2022-09-09T06:11:35;14.30;99.90
7196;DHT22;3639;51.308;5.624;2022-09-09T06:14:02;14.40;99.90
7196;DHT22;3639;51.308;5.624;2022-09-09T06:16:28;14.40;99.90
7196;DHT22;3639;51.308;5.624;2022-09-09T06:18:55;14.60;99.90
7196;DHT22;3639;51.308;5.624;2022-09-09T06:23:51;14.60;99.90
7196;DHT22;3639;51.308;5.624;2022-09-09T06:26:33;14.80;99.90
7196;DHT22;3639;51.308;5.624;2022-09-09T06:29:00;14.80;99.90
7196;DHT22;3639;51.308;5.624;2022-09-09T06:31:28;14.80;99.90
7196;DHT22;3639;51.308;5.624;2022-09-09T06:33:59;14.90;99.90
7196;DHT22;3639;51.308;5.624;2022-09-09T06:36:27;14.90;99.90
7196;DHT22;3639;51.308;5.624;2022-09-09T06:38:54;15.10;99.90
7196;DHT22;3639;51.308;5.624;2022-09-09T06:41:20;15.10;99.90
7196;DHT22;3639;51.308;5.624;2022-09-09T06:43:46;15.10;99.90
7196;DHT22;3639;51.308;5.624;2022-09-09T06:46:17;15.10;99.90
7196;DHT22;3639;51.308;5.624;2022-09-09T06:48:44;15.20;99.90
7196;DHT22;3639;51.308;5.624;2022-09-09T06:53:40;15.40;99.90
7196;DHT22;3639;51.308;5.624;2022-09-09T06:56:22;15.40;99.90
7196;DHT22;3639;51.308;5.624;2022-09-09T06:58:49;15.40;99.90
7196;DHT22;3639;51.308;5.624;2022-09-09T07:01:17;15.50;99.90
7196;DHT22;3639;51.308;5.624;2022-09-09T07:03:46;15.50;99.90
7196;DHT22;3639;51.308;5.624;2022-09-09T07:06:15;15.50;99.90
7196;DHT22;3639;51.308;5.624;2022-09-09T07:08:48;15.70;99.90
7196;DHT22;3639;51.308;5.624;2022-09-09T07:11:14;15.70;99.90
7196;DHT22;3639;51.308;5.624;2022-09-09T07:13:39;15.80;99.90
7196;DHT22;3639;51.308;5.624;2022-09-09T07:16:07;15.90;99.90
7196;DHT22;3639;51.308;5.624;2022-09-09T07:18:33;16.00;99.90
7196;DHT22;3639;51.308;5.624;2022-09-09T07:21:00;16.10;99.90
7196;DHT22;3639;51.308;5.624;2022-09-09T07:23:26;16.10;99.90
7196;DHT22;3639;51.308;5.624;2022-09-09T07:25:52;16.20;99.90
7196;DHT22;3639;51.308;5.624;2022-09-09T07:28:18;16.30;99.90
7196;DHT22;3639;51.308;5.624;2022-09-09T07:30:56;16.40;99.90
7196;DHT22;3639;51.308;5.624;2022-09-09T07:33:23;16.50;99.90
7196;DHT22;3639;51.308;5.624;2022-09-09T07:35:49;16.70;99.90
7196;DHT22;3639;51.308;5.624;2022-09-09T07:38:15;16.80;99.90
7196;DHT22;3639;51.308;5.624;2022-09-09T07:40:41;16.90;99.90
7196;DHT22;3639;51.308;5.624;2022-09-09T07:43:06;16.80;99.90
7196;DHT22;3639;51.308;5.624;2022-09-09T07:45:33;16.80;99.90
7196;DHT22;3639;51.308;5.624;2022-09-09T07:48:00;16.80;99.90
7196;DHT22;3639;51.308;5.624;2022-09-09T07:50:25;16.80;99.90
7196;DHT22;3639;51.308;5.624;2022-09-09T07:52:52;16.90;99.90
7196;DHT22;3639;51.308;5.624;2022-09-09T07:55:19;16.90;99.90
7196;DHT22;3639;51.308;5.624;2022-09-09T07:57:45;16.80;99.90
7196;DHT22;3639;51.308;5.624;2022-09-09T08:00:11;16.80;99.90
7196;DHT22;3639;51.308;5.624;2022-09-09T08:02:37;16.90;99.90
7196;DHT22;3639;51.308;5.624;2022-09-09T08:05:03;16.90;99.90
7196;DHT22;3639;51.308;5.624;2022-09-09T08:07:28;17.10;99.90
7196;DHT22;3639;51.308;5.624;2022-09-09T08:09:54;17.30;99.90
7196;DHT22;3639;51.308;5.624;2022-09-09T08:12:21;17.40;99.90
7196;DHT22;3639;51.308;5.624;2022-09-09T08:14:47;17.40;99.90
7196;DHT22;3639;51.308;5.624;2022-09-09T08:17:14;17.50;99.90
7196;DHT22;3639;51.308;5.624;2022-09-09T08:19:39;17.40;99.90
7196;DHT22;3639;51.308;5.624;2022-09-09T08:22:05;17.30;99.90
7196;DHT22;3639;51.308;5.624;2022-09-09T08:24:31;17.20;99.90
7196;DHT22;3639;51.308;5.624;2022-09-09T08:26:57;17.20;99.90
7196;DHT22;3639;51.308;5.624;2022-09-09T08:29:22;17.20;99.90
7196;DHT22;3639;51.308;5.624;2022-09-09T08:31:56;17.30;99.90
7196;DHT22;3639;51.308;5.624;2022-09-09T08:34:23;17.40;99.90
7196;DHT22;3639;51.308;5.624;2022-09-09T08:36:50;17.40;99.90
7196;DHT22;3639;51.308;5.624;2022-09-09T08:39:18;17.50;99.90
7196;DHT22;3639;51.308;5.624;2022-09-09T08:44:40;17.70;99.90
7196;DHT22;3639;51.308;5.624;2022-09-09T08:50:35;17.70;99.90
7196;DHT22;3639;51.308;5.624;2022-09-09T08:53:24;17.60;99.90
7196;DHT22;3639;51.308;5.624;2022-09-09T08:55:56;17.50;99.90
7196;DHT22;3639;51.308;5.624;2022-09-09T08:58:33;17.50;99.90
7196;DHT22;3639;51.308;5.624;2022-09-09T09:08:39;17.70;99.90
7196;DHT22;3639;51.308;5.624;2022-09-09T09:11:08;17.70;99.90
7196;DHT22;3639;51.308;5.624;2022-09-09T09:16:34;17.60;99.90
7196;DHT22;3639;51.308;5.624;2022-09-09T09:19:02;17.80;99.90
7196;DHT22;3639;51.308;5.624;2022-09-09T09:21:39;18.00;99.90
7196;DHT22;3639;51.308;5.624;2022-09-09T09:24:23;18.10;99.90
7196;DHT22;3639;51.308;5.624;2022-09-09T09:26:50;18.30;99.90
7196;DHT22;3639;51.308;5.624;2022-09-09T09:29:19;18.20;99.90
7196;DHT22;3639;51.308;5.624;2022-09-09T09:31:53;18.00;99.90
7196;DHT22;3639;51.308;5.624;2022-09-09T09:34:23;18.00;99.90
7196;DHT22;3639;51.308;5.624;2022-09-09T09:37:00;17.90;99.90
7196;DHT22;3639;51.308;5.624;2022-09-09T09:39:31;17.90;99.90
7196;DHT22;3639;51.308;5.624;2022-09-09T09:42:10;17.80;99.90
7196;DHT22;3639;51.308;5.624;2022-09-09T09:44:39;17.90;99.90
7196;DHT22;3639;51.308;5.624;2022-09-09T09:47:15;17.80;99.90
7196;DHT22;3639;51.308;5.624;2022-09-09T09:49:58;17.80;99.90
7196;DHT22;3639;51.308;5.624;2022-09-09T09:52:29;17.80;99.90
7196;DHT22;3639;51.308;5.624;2022-09-09T09:54:57;18.00;99.90
7196;DHT22;3639;51.308;5.624;2022-09-09T09:57:30;18.10;99.90
7196;DHT22;3639;51.308;5.624;2022-09-09T10:02:39;18.40;99.90
7196;DHT22;3639;51.308;5.624;2022-09-09T10:07:46;18.50;99.90
7196;DHT22;3639;51.308;5.624;2022-09-09T10:10:18;18.40;99.90
7196;DHT22;3639;51.308;5.624;2022-09-09T10:13:10;18.40;99.90
7196;DHT22;3639;51.308;5.624;2022-09-09T10:16:06;18.30;99.90
7196;DHT22;3639;51.308;5.624;2022-09-09T10:18:39;18.20;99.90
7196;DHT22;3639;51.308;5.624;2022-09-09T10:34:44;17.60;99.90
7196;DHT22;3639;51.308;5.624;2022-09-09T10:37:41;17.40;99.90
7196;DHT22;3639;51.308;5.624;2022-09-09T10:40:37;17.30;99.90
7196;DHT22;3639;51.308;5.624;2022-09-09T10:49:09;17.30;99.90
7196;DHT22;3639;51.308;5.624;2022-09-09T10:52:07;17.30;99.90
7196;DHT22;3639;51.308;5.624;2022-09-09T10:55:00;17.00;99.90
7196;DHT22;3639;51.308;5.624;2022-09-09T10:57:45;16.70;99.90
7196;DHT22;3639;51.308;5.624;2022-09-09T11:00:19;16.50;99.90
7196;DHT22;3639;51.308;5.624;2022-09-09T11:02:56;16.40;99.90
7196;DHT22;3639;51.308;5.624;2022-09-09T11:05:29;16.30;99.90
7196;DHT22;3639;51.308;5.624;2022-09-09T11:07:59;16.30;99.90
7196;DHT22;3639;51.308;5.624;2022-09-09T11:13:02;16.30;99.90
7196;DHT22;3639;51.308;5.624;2022-09-09T11:15:39;16.30;99.90
7196;DHT22;3639;51.308;5.624;2022-09-09T11:18:12;16.40;99.90
7196;DHT22;3639;51.308;5.624;2022-09-09T11:20:39;16.40;99.90
7196;DHT22;3639;51.308;5.624;2022-09-09T11:23:17;16.40;99.90
7196;DHT22;3639;51.308;5.624;2022-09-09T11:25:50;16.30;99.90
7196;DHT22;3639;51.308;5.624;2022-09-09T11:39:22;16.50;99.90
7196;DHT22;3639;51.308;5.624;2022-09-09T11:41:52;16.70;99.90
7196;DHT22;3639;51.308;5.624;2022-09-09T11:44:28;16.90;99.90
7196;DHT22;3639;51.308;5.624;2022-09-09T11:46:55;17.10;99.90
7196;DHT22;3639;51.308;5.624;2022-09-09T11:49:41;17.30;99.90
7196;DHT22;3639;51.308;5.624;2022-09-09T11:52:12;17.50;99.90
7196;DHT22;3639;51.308;5.624;2022-09-09T11:54:48;17.80;99.90
7196;DHT22;3639;51.308;5.624;2022-09-09T11:57:35;17.80;99.90
7196;DHT22;3639;51.308;5.624;2022-09-09T12:00:03;17.90;99.90
7196;DHT22;3639;51.308;5.624;2022-09-09T12:02:29;18.00;99.90
7196;DHT22;3639;51.308;5.624;2022-09-09T12:05:18;18.10;99.90
7196;DHT22;3639;51.308;5.624;2022-09-09T12:07:56;18.20;99.90
7196;DHT22;3639;51.308;5.624;2022-09-09T12:10:39;18.20;99.90
7196;DHT22;3639;51.308;5.624;2022-09-09T12:13:19;18.20;99.90
7196;DHT22;3639;51.308;5.624;2022-09-09T12:15:50;18.30;99.90
7196;DHT22;3639;51.308;5.624;2022-09-09T12:26:27;18.80;99.90
7196;DHT22;3639;51.308;5.624;2022-09-09T12:29:25;19.00;99.90
7196;DHT22;3639;51.308;5.624;2022-09-09T12:32:15;19.30;99.90
7196;DHT22;3639;51.308;5.624;2022-09-09T12:34:59;19.30;99.90
7196;DHT22;3639;51.308;5.624;2022-09-09T12:40:00;19.00;99.90
7196;DHT22;3639;51.308;5.624;2022-09-09T12:42:28;19.20;99.90
7196;DHT22;3639;51.308;5.624;2022-09-09T12:44:58;19.40;99.90
7196;DHT22;3639;51.308;5.624;2022-09-09T12:49:55;19.30;99.90
7196;DHT22;3639;51.308;5.624;2022-09-09T12:52:28;19.40;99.90
7196;DHT22;3639;51.308;5.624;2022-09-09T12:54:55;19.50;99.90
7196;DHT22;3639;51.308;5.624;2022-09-09T12:57:23;19.80;99.90
7196;DHT22;3639;51.308;5.624;2022-09-09T13:00:07;19.90;99.90
7196;DHT22;3639;51.308;5.624;2022-09-09T13:02:35;20.00;99.90
7196;DHT22;3639;51.308;5.624;2022-09-09T13:05:16;20.10;99.90
7196;DHT22;3639;51.308;5.624;2022-09-09T13:07:42;20.00;99.90
7196;DHT22;3639;51.308;5.624;2022-09-09T13:10:11;20.00;99.90
7196;DHT22;3639;51.308;5.624;2022-09-09T13:12:38;20.10;99.90
7196;DHT22;3639;51.308;5.624;2022-09-09T13:15:04;20.20;99.90
7196;DHT22;3639;51.308;5.624;2022-09-09T13:17:35;20.30;99.90
7196;DHT22;3639;51.308;5.624;2022-09-09T13:20:01;20.30;99.90
7196;DHT22;3639;51.308;5.624;2022-09-09T13:25:18;20.20;99.90
7196;DHT22;3639;51.308;5.624;2022-09-09T13:28:03;20.00;99.90
7196;DHT22;3639;51.308;5.624;2022-09-09T13:35:30;19.90;99.90
7196;DHT22;3639;51.308;5.624;2022-09-09T13:37:57;19.90;99.90
7196;DHT22;3639;51.308;5.624;2022-09-09T13:40:23;19.90;99.90
7196;DHT22;3639;51.308;5.624;2022-09-09T13:42:55;19.80;99.90
7196;DHT22;3639;51.308;5.624;2022-09-09T13:45:24;20.00;99.90
7196;DHT22;3639;51.308;5.624;2022-09-09T13:47:53;20.30;99.90
7196;DHT22;3639;51.308;5.624;2022-09-09T13:50:28;20.30;99.90
7196;DHT22;3639;51.308;5.624;2022-09-09T13:52:59;20.20;99.90
7196;DHT22;3639;51.308;5.624;2022-09-09T13:55:36;20.10;99.90
7196;DHT22;3639;51.308;5.624;2022-09-09T13:58:03;20.10;99.90
7196;DHT22;3639;51.308;5.624;2022-09-09T14:00:33;20.40;99.90
7196;DHT22;3639;51.308;5.624;2022-09-09T14:02:59;20.50;99.90
7196;DHT22;3639;51.308;5.624;2022-09-09T14:05:30;20.50;99.90
7196;DHT22;3639;51.308;5.624;2022-09-09T14:07:57;20.50;99.90
7196;DHT22;3639;51.308;5.624;2022-09-09T14:10:23;20.50;99.90
7196;DHT22;3639;51.308;5.624;2022-09-09T14:12:48;20.50;99.90
7196;DHT22;3639;51.308;5.624;2022-09-09T14:15:14;20.60;99.90
7196;DHT22;3639;51.308;5.624;2022-09-09T14:17:40;20.60;99.90
7196;DHT22;3639;51.308;5.624;2022-09-09T14:20:07;20.60;99.90
7196;DHT22;3639;51.308;5.624;2022-09-09T14:22:35;20.50;99.90
7196;DHT22;3639;51.308;5.624;2022-09-09T14:25:01;20.40;99.90
7196;DHT22;3639;51.308;5.624;2022-09-09T14:27:27;20.40;99.90
7196;DHT22;3639;51.308;5.624;2022-09-09T14:29:53;20.30;99.90
7196;DHT22;3639;51.308;5.624;2022-09-09T14:32:19;20.30;99.90
7196;DHT22;3639;51.308;5.624;2022-09-09T14:34:44;20.40;99.90
7196;DHT22;3639;51.308;5.624;2022-09-09T14:37:10;20.30;99.90
7196;DHT22;3639;51.308;5.624;2022-09-09T14:39:36;20.30;99.90
7196;DHT22;3639;51.308;5.624;2022-09-09T14:42:01;20.20;99.90
7196;DHT22;3639;51.308;5.624;2022-09-09T14:44:28;20.20;99.90
7196;DHT22;3639;51.308;5.624;2022-09-09T14:46:53;20.20;99.90
7196;DHT22;3639;51.308;5.624;2022-09-09T14:49:19;20.20;99.90
7196;DHT22;3639;51.308;5.624;2022-09-09T14:51:45;20.10;99.90
7196;DHT22;3639;51.308;5.624;2022-09-09T14:54:11;20.10;99.90
7196;DHT22;3639;51.308;5.624;2022-09-09T14:56:37;20.20;99.90
7196;DHT22;3639;51.308;5.624;2022-09-09T14:59:03;20.40;99.90
7196;DHT22;3639;51.308;5.624;2022-09-09T15:01:31;20.50;99.90
7196;DHT22;3639;51.308;5.624;2022-09-09T15:04:03;20.60;99.90
7196;DHT22;3639;51.308;5.624;2022-09-09T15:06:30;20.50;99.90
7196;DHT22;3639;51.308;5.624;2022-09-09T15:08:59;20.40;99.90
7196;DHT22;3639;51.308;5.624;2022-09-09T15:11:27;20.50;99.90
7196;DHT22;3639;51.308;5.624;2022-09-09T15:13:53;20.50;99.90
7196;DHT22;3639;51.308;5.624;2022-09-09T15:16:21;20.40;99.90
7196;DHT22;3639;51.308;5.624;2022-09-09T15:18:51;20.40;99.90
7196;DHT22;3639;51.308;5.624;2022-09-09T15:21:18;20.40;99.90
7196;DHT22;3639;51.308;5.624;2022-09-09T15:23:44;20.30;99.90
7196;DHT22;3639;51.308;5.624;2022-09-09T15:26:10;20.10;99.90
7196;DHT22;3639;51.308;5.624;2022-09-09T15:28:37;20.00;99.90
7196;DHT22;3639;51.308;5.624;2022-09-09T15:33:37;19.90;99.90
7196;DHT22;3639;51.308;5.624;2022-09-09T15:38:42;19.80;99.90
7196;DHT22;3639;51.308;5.624;2022-09-09T15:41:09;19.80;99.90
7196;DHT22;3639;51.308;5.624;2022-09-09T15:43:35;19.90;99.90
7196;DHT22;3639;51.308;5.624;2022-09-09T15:48:46;20.00;99.90
7196;DHT22;3639;51.308;5.624;2022-09-09T15:51:11;20.00;99.90
7196;DHT22;3639;51.308;5.624;2022-09-09T15:53:38;19.90;99.90
7196;DHT22;3639;51.308;5.624;2022-09-09T15:56:06;20.00;99.90
7196;DHT22;3639;51.308;5.624;2022-09-09T15:58:36;19.90;99.90
7196;DHT22;3639;51.308;5.624;2022-09-09T16:01:06;19.90;99.90
7196;DHT22;3639;51.308;5.624;2022-09-09T16:03:36;20.00;99.90
7196;DHT22;3639;51.308;5.624;2022-09-09T16:06:03;20.10;99.90
7196;DHT22;3639;51.308;5.624;2022-09-09T16:08:37;20.20;99.90
7196;DHT22;3639;51.308;5.624;2022-09-09T16:11:14;20.30;99.90
7196;DHT22;3639;51.308;5.624;2022-09-09T16:13:42;20.30;99.90
7196;DHT22;3639;51.308;5.624;2022-09-09T16:16:10;20.20;99.90
7196;DHT22;3639;51.308;5.624;2022-09-09T16:18:42;20.10;99.90
7196;DHT22;3639;51.308;5.624;2022-09-09T16:21:16;20.00;99.90
7196;DHT22;3639;51.308;5.624;2022-09-09T16:23:42;19.90;99.90
7196;DHT22;3639;51.308;5.624;2022-09-09T16:26:11;19.90;99.90
7196;DHT22;3639;51.308;5.624;2022-09-09T16:28:37;19.80;99.90
7196;DHT22;3639;51.308;5.624;2022-09-09T16:31:08;19.70;99.90
7196;DHT22;3639;51.308;5.624;2022-09-09T16:33:36;19.60;99.90
7196;DHT22;3639;51.308;5.624;2022-09-09T16:36:10;19.60;99.90
7196;DHT22;3639;51.308;5.624;2022-09-09T16:38:37;19.60;99.90
7196;DHT22;3639;51.308;5.624;2022-09-09T16:41:04;19.50;99.90
7196;DHT22;3639;51.308;5.624;2022-09-09T16:43:34;19.50;99.90
7196;DHT22;3639;51.308;5.624;2022-09-09T16:46:01;19.40;99.90
7196;DHT22;3639;51.308;5.624;2022-09-09T16:48:31;19.30;99.90
7196;DHT22;3639;51.308;5.624;2022-09-09T16:51:05;19.40;99.90
7196;DHT22;3639;51.308;5.624;2022-09-09T16:53:32;19.40;99.90
7196;DHT22;3639;51.308;5.624;2022-09-09T16:55:57;19.40;99.90
7196;DHT22;3639;51.308;5.624;2022-09-09T16:58:23;19.40;99.90
7196;DHT22;3639;51.308;5.624;2022-09-09T17:00:49;19.40;99.90
7196;DHT22;3639;51.308;5.624;2022-09-09T17:03:16;19.30;99.90
7196;DHT22;3639;51.308;5.624;2022-09-09T17:05:42;19.10;99.90
7196;DHT22;3639;51.308;5.624;2022-09-09T17:08:07;18.80;99.90
7196;DHT22;3639;51.308;5.624;2022-09-09T17:10:33;18.60;99.90
7196;DHT22;3639;51.308;5.624;2022-09-09T17:12:59;18.30;99.90
7196;DHT22;3639;51.308;5.624;2022-09-09T17:15:24;18.00;99.90
7196;DHT22;3639;51.308;5.624;2022-09-09T17:17:50;17.80;99.90
7196;DHT22;3639;51.308;5.624;2022-09-09T17:20:19;17.60;99.90
7196;DHT22;3639;51.308;5.624;2022-09-09T17:22:45;17.40;99.90
7196;DHT22;3639;51.308;5.624;2022-09-09T17:25:11;17.30;99.90
7196;DHT22;3639;51.308;5.624;2022-09-09T17:27:37;17.30;99.90
7196;DHT22;3639;51.308;5.624;2022-09-09T17:30:03;17.10;99.90
7196;DHT22;3639;51.308;5.624;2022-09-09T17:32:29;17.10;99.90
7196;DHT22;3639;51.308;5.624;2022-09-09T17:34:55;17.10;99.90
7196;DHT22;3639;51.308;5.624;2022-09-09T17:37:21;17.10;99.90
7196;DHT22;3639;51.308;5.624;2022-09-09T17:39:46;17.00;99.90
7196;DHT22;3639;51.308;5.624;2022-09-09T17:42:12;16.90;99.90
7196;DHT22;3639;51.308;5.624;2022-09-09T17:44:38;16.90;99.90
7196;DHT22;3639;51.308;5.624;2022-09-09T17:47:05;16.90;99.90
7196;DHT22;3639;51.308;5.624;2022-09-09T17:49:31;16.90;99.90
7196;DHT22;3639;51.308;5.624;2022-09-09T17:51:57;16.90;99.90
7196;DHT22;3639;51.308;5.624;2022-09-09T17:54:23;16.80;99.90
7196;DHT22;3639;51.308;5.624;2022-09-09T17:56:49;16.80;99.90
7196;DHT22;3639;51.308;5.624;2022-09-09T17:59:16;16.80;99.90
7196;DHT22;3639;51.308;5.624;2022-09-09T18:01:44;16.80;99.90
7196;DHT22;3639;51.308;5.624;2022-09-09T18:04:11;16.70;99.90
7196;DHT22;3639;51.308;5.624;2022-09-09T18:06:49;16.70;99.90
7196;DHT22;3639;51.308;5.624;2022-09-09T18:09:18;16.60;99.90
7196;DHT22;3639;51.308;5.624;2022-09-09T18:11:46;16.60;99.90
7196;DHT22;3639;51.308;5.624;2022-09-09T18:14:14;16.50;99.90
7196;DHT22;3639;51.308;5.624;2022-09-09T18:16:42;16.50;99.90
7196;DHT22;3639;51.308;5.624;2022-09-09T18:19:10;16.50;99.90
7196;DHT22;3639;51.308;5.624;2022-09-09T18:21:38;16.40;99.90
7196;DHT22;3639;51.308;5.624;2022-09-09T18:24:05;16.30;99.90
7196;DHT22;3639;51.308;5.624;2022-09-09T18:26:31;16.30;99.90
7196;DHT22;3639;51.308;5.624;2022-09-09T18:29:04;16.30;99.90
7196;DHT22;3639;51.308;5.624;2022-09-09T18:31:31;16.20;99.90
7196;DHT22;3639;51.308;5.624;2022-09-09T18:33:59;16.20;99.90
7196;DHT22;3639;51.308;5.624;2022-09-09T18:36:27;16.20;99.90